sensor_id;sensor_type;location;lat;lon;timestamp;temperature;humidity
17284;DHT22;8760;52.248;20.952;2022-07-29T00:01:21;15.40;44.30
17284;DHT22;8760;52.248;20.952;2022-07-29T00:03:48;15.40;72.30
17284;DHT22;8760;52.248;20.952;2022-07-29T00:06:15;15.40;86.40
17284;DHT22;8760;52.248;20.952;2022-07-29T00:08:42;15.30;80.20
17284;DHT22;8760;52.248;20.952;2022-07-29T00:11:09;15.40;40.50
17284;DHT22;8760;52.248;20.952;2022-07-29T00:13:36;15.30;40.30
17284;DHT22;8760;52.248;20.952;2022-07-29T00:16:03;15.30;26.60
17284;DHT22;8760;52.248;20.952;2022-07-29T00:18:32;15.30;15.10
17284;DHT22;8760;52.248;20.952;2022-07-29T00:20:59;15.30;8.30
17284;DHT22;8760;52.248;20.952;2022-07-29T00:23:26;15.30;55.30
17284;DHT22;8760;52.248;20.952;2022-07-29T00:25:52;15.30;90.90
17284;DHT22;8760;52.248;20.952;2022-07-29T00:28:19;15.30;51.20
17284;DHT22;8760;52.248;20.952;2022-07-29T00:30:46;15.30;17.20
17284;DHT22;8760;52.248;20.952;2022-07-29T00:33:13;15.20;38.50
17284;DHT22;8760;52.248;20.952;2022-07-29T00:35:41;15.20;81.40
17284;DHT22;8760;52.248;20.952;2022-07-29T00:38:10;15.20;75.60
17284;DHT22;8760;52.248;20.952;2022-07-29T00:40:37;15.20;94.30
17284;DHT22;8760;52.248;20.952;2022-07-29T00:43:04;15.20;86.00
17284;DHT22;8760;52.248;20.952;2022-07-29T00:45:31;15.20;99.90
17284;DHT22;8760;52.248;20.952;2022-07-29T00:47:58;15.20;98.60
17284;DHT22;8760;52.248;20.952;2022-07-29T00:50:25;15.20;93.90
17284;DHT22;8760;52.248;20.952;2022-07-29T00:52:53;15.20;69.10
17284;DHT22;8760;52.248;20.952;2022-07-29T00:55:20;15.20;65.00
17284;DHT22;8760;52.248;20.952;2022-07-29T00:57:47;15.20;91.60
17284;DHT22;8760;52.248;20.952;2022-07-29T01:00:17;15.20;99.90
17284;DHT22;8760;52.248;20.952;2022-07-29T01:02:44;15.20;95.80
17284;DHT22;8760;52.248;20.952;2022-07-29T01:05:11;15.20;70.30
17284;DHT22;8760;52.248;20.952;2022-07-29T01:07:39;15.20;96.90
17284;DHT22;8760;52.248;20.952;2022-07-29T01:10:10;15.20;98.60
17284;DHT22;8760;52.248;20.952;2022-07-29T01:12:39;15.20;99.90
17284;DHT22;8760;52.248;20.952;2022-07-29T01:15:08;15.20;86.10
17284;DHT22;8760;52.248;20.952;2022-07-29T01:17:41;15.20;97.20
17284;DHT22;8760;52.248;20.952;2022-07-29T01:20:14;15.20;96.80
17284;DHT22;8760;52.248;20.952;2022-07-29T01:22:54;15.20;99.70
17284;DHT22;8760;52.248;20.952;2022-07-29T01:25:45;15.20;80.60
17284;DHT22;8760;52.248;20.952;2022-07-29T01:28:44;15.10;77.70
17284;DHT22;8760;52.248;20.952;2022-07-29T01:31:16;15.20;84.20
17284;DHT22;8760;52.248;20.952;2022-07-29T01:33:50;15.20;93.60
17284;DHT22;8760;52.248;20.952;2022-07-29T01:36:28;15.10;75.00
17284;DHT22;8760;52.248;20.952;2022-07-29T01:39:04;15.10;80.70
17284;DHT22;8760;52.248;20.952;2022-07-29T01:41:32;15.20;87.20
17284;DHT22;8760;52.248;20.952;2022-07-29T01:44:10;15.20;97.20
17284;DHT22;8760;52.248;20.952;2022-07-29T01:46:41;15.10;99.90
17284;DHT22;8760;52.248;20.952;2022-07-29T01:49:14;15.10;97.40
17284;DHT22;8760;52.248;20.952;2022-07-29T01:51:44;15.00;99.90
17284;DHT22;8760;52.248;20.952;2022-07-29T01:54:16;15.00;99.90
17284;DHT22;8760;52.248;20.952;2022-07-29T01:56:48;15.10;99.90
17284;DHT22;8760;52.248;20.952;2022-07-29T01:59:18;15.00;99.90
17284;DHT22;8760;52.248;20.952;2022-07-29T02:01:46;15.00;99.90
17284;DHT22;8760;52.248;20.952;2022-07-29T02:04:15;15.00;99.90
17284;DHT22;8760;52.248;20.952;2022-07-29T02:06:44;14.90;99.90
17284;DHT22;8760;52.248;20.952;2022-07-29T02:09:13;14.90;99.90
17284;DHT22;8760;52.248;20.952;2022-07-29T02:11:47;15.00;99.90
17284;DHT22;8760;52.248;20.952;2022-07-29T02:14:14;14.90;99.90
17284;DHT22;8760;52.248;20.952;2022-07-29T02:16:44;14.90;99.90
17284;DHT22;8760;52.248;20.952;2022-07-29T02:19:12;14.90;99.90
17284;DHT22;8760;52.248;20.952;2022-07-29T02:21:40;15.00;99.90
17284;DHT22;8760;52.248;20.952;2022-07-29T02:24:09;14.90;99.90
17284;DHT22;8760;52.248;20.952;2022-07-29T02:26:38;15.00;99.90
17284;DHT22;8760;52.248;20.952;2022-07-29T02:29:06;15.00;99.90
17284;DHT22;8760;52.248;20.952;2022-07-29T02:31:36;15.00;99.90
17284;DHT22;8760;52.248;20.952;2022-07-29T02:34:08;15.00;99.90
17284;DHT22;8760;52.248;20.952;2022-07-29T02:36:36;15.00;99.90
17284;DHT22;8760;52.248;20.952;2022-07-29T02:39:04;15.00;99.90
17284;DHT22;8760;52.248;20.952;2022-07-29T02:41:37;15.00;99.90
17284;DHT22;8760;52.248;20.952;2022-07-29T02:44:10;15.00;99.90
17284;DHT22;8760;52.248;20.952;2022-07-29T02:46:43;14.90;99.90
17284;DHT22;8760;52.248;20.952;2022-07-29T02:49:16;14.90;99.90
17284;DHT22;8760;52.248;20.952;2022-07-29T02:51:46;14.90;99.90
17284;DHT22;8760;52.248;20.952;2022-07-29T02:54:22;14.90;99.90
17284;DHT22;8760;52.248;20.952;2022-07-29T02:56:50;14.80;99.90
17284;DHT22;8760;52.248;20.952;2022-07-29T02:59:23;14.90;99.90
17284;DHT22;8760;52.248;20.952;2022-07-29T03:01:52;14.90;99.90
17284;DHT22;8760;52.248;20.952;2022-07-29T03:04:22;15.00;99.90
17284;DHT22;8760;52.248;20.952;2022-07-29T03:06:52;15.00;99.90
17284;DHT22;8760;52.248;20.952;2022-07-29T03:09:20;15.00;99.90
17284;DHT22;8760;52.248;20.952;2022-07-29T03:11:49;15.00;99.90
17284;DHT22;8760;52.248;20.952;2022-07-29T03:14:17;15.10;99.90
17284;DHT22;8760;52.248;20.952;2022-07-29T03:16:44;15.10;99.90
17284;DHT22;8760;52.248;20.952;2022-07-29T03:19:11;15.00;99.90
17284;DHT22;8760;52.248;20.952;2022-07-29T03:21:40;15.00;99.90
17284;DHT22;8760;52.248;20.952;2022-07-29T03:24:06;15.00;99.90
17284;DHT22;8760;52.248;20.952;2022-07-29T03:26:33;15.10;99.90
17284;DHT22;8760;52.248;20.952;2022-07-29T03:29:00;15.10;99.90
17284;DHT22;8760;52.248;20.952;2022-07-29T03:31:27;15.10;99.90
17284;DHT22;8760;52.248;20.952;2022-07-29T03:33:54;15.20;99.90
17284;DHT22;8760;52.248;20.952;2022-07-29T03:36:20;15.30;99.90
17284;DHT22;8760;52.248;20.952;2022-07-29T03:38:49;15.30;99.90
17284;DHT22;8760;52.248;20.952;2022-07-29T03:41:16;15.30;99.90
17284;DHT22;8760;52.248;20.952;2022-07-29T03:43:46;15.40;99.90
17284;DHT22;8760;52.248;20.952;2022-07-29T03:46:13;15.40;99.90
17284;DHT22;8760;52.248;20.952;2022-07-29T03:48:46;15.40;99.90
17284;DHT22;8760;52.248;20.952;2022-07-29T03:51:15;15.40;99.90
17284;DHT22;8760;52.248;20.952;2022-07-29T03:53:41;15.40;99.90
17284;DHT22;8760;52.248;20.952;2022-07-29T03:56:10;15.40;99.90
17284;DHT22;8760;52.248;20.952;2022-07-29T03:58:41;15.50;99.90
17284;DHT22;8760;52.248;20.952;2022-07-29T04:01:09;15.50;99.90
17284;DHT22;8760;52.248;20.952;2022-07-29T04:03:36;15.60;99.90
17284;DHT22;8760;52.248;20.952;2022-07-29T04:06:04;15.70;99.90
17284;DHT22;8760;52.248;20.952;2022-07-29T04:08:32;15.70;96.00
17284;DHT22;8760;52.248;20.952;2022-07-29T04:10:58;15.70;99.90
17284;DHT22;8760;52.248;20.952;2022-07-29T04:13:27;15.70;99.90
17284;DHT22;8760;52.248;20.952;2022-07-29T04:15:54;15.70;99.90
17284;DHT22;8760;52.248;20.952;2022-07-29T04:18:21;15.80;99.90
17284;DHT22;8760;52.248;20.952;2022-07-29T04:20:48;15.80;99.90
17284;DHT22;8760;52.248;20.952;2022-07-29T04:23:15;15.80;99.90
17284;DHT22;8760;52.248;20.952;2022-07-29T04:25:42;15.90;99.90
17284;DHT22;8760;52.248;20.952;2022-07-29T04:28:10;15.90;99.90
17284;DHT22;8760;52.248;20.952;2022-07-29T04:30:38;15.90;71.70
17284;DHT22;8760;52.248;20.952;2022-07-29T04:33:06;15.90;80.60
17284;DHT22;8760;52.248;20.952;2022-07-29T04:35:35;16.00;99.90
17284;DHT22;8760;52.248;20.952;2022-07-29T04:38:02;16.00;99.90
17284;DHT22;8760;52.248;20.952;2022-07-29T04:40:29;16.10;93.50
17284;DHT22;8760;52.248;20.952;2022-07-29T04:42:58;16.20;95.40
17284;DHT22;8760;52.248;20.952;2022-07-29T04:45:25;16.20;69.60
17284;DHT22;8760;52.248;20.952;2022-07-29T04:47:53;16.20;81.60
17284;DHT22;8760;52.248;20.952;2022-07-29T04:50:20;16.30;86.20
17284;DHT22;8760;52.248;20.952;2022-07-29T04:52:46;16.30;84.40
17284;DHT22;8760;52.248;20.952;2022-07-29T04:55:13;16.30;53.20
17284;DHT22;8760;52.248;20.952;2022-07-29T04:57:40;16.40;63.40
17284;DHT22;8760;52.248;20.952;2022-07-29T05:00:08;16.40;13.10
17284;DHT22;8760;52.248;20.952;2022-07-29T05:02:35;16.40;45.50
17284;DHT22;8760;52.248;20.952;2022-07-29T05:05:03;16.50;37.10
17284;DHT22;8760;52.248;20.952;2022-07-29T05:07:30;16.50;17.90
17284;DHT22;8760;52.248;20.952;2022-07-29T05:09:57;16.60;14.80
17284;DHT22;8760;52.248;20.952;2022-07-29T05:12:24;16.70;8.30
17284;DHT22;8760;52.248;20.952;2022-07-29T05:14:51;16.70;9.60
17284;DHT22;8760;52.248;20.952;2022-07-29T05:17:18;16.80;1.00
17284;DHT22;8760;52.248;20.952;2022-07-29T05:19:44;16.90;1.00
17284;DHT22;8760;52.248;20.952;2022-07-29T05:22:12;17.00;1.00
17284;DHT22;8760;52.248;20.952;2022-07-29T05:24:39;17.10;1.00
17284;DHT22;8760;52.248;20.952;2022-07-29T05:27:06;17.20;1.00
17284;DHT22;8760;52.248;20.952;2022-07-29T05:29:33;17.20;1.00
17284;DHT22;8760;52.248;20.952;2022-07-29T05:31:59;17.20;1.00
17284;DHT22;8760;52.248;20.952;2022-07-29T05:34:26;17.40;1.00
17284;DHT22;8760;52.248;20.952;2022-07-29T05:36:53;17.40;1.00
17284;DHT22;8760;52.248;20.952;2022-07-29T05:39:22;17.60;1.00
17284;DHT22;8760;52.248;20.952;2022-07-29T05:41:48;17.70;1.00
17284;DHT22;8760;52.248;20.952;2022-07-29T05:44:15;17.80;1.00
17284;DHT22;8760;52.248;20.952;2022-07-29T05:46:43;17.90;1.00
17284;DHT22;8760;52.248;20.952;2022-07-29T05:49:10;18.00;1.00
17284;DHT22;8760;52.248;20.952;2022-07-29T05:51:37;18.00;1.00
17284;DHT22;8760;52.248;20.952;2022-07-29T05:54:04;18.10;99.90
17284;DHT22;8760;52.248;20.952;2022-07-29T05:56:32;18.20;99.90
17284;DHT22;8760;52.248;20.952;2022-07-29T05:58:59;18.30;1.00
17284;DHT22;8760;52.248;20.952;2022-07-29T06:01:25;18.40;99.90
17284;DHT22;8760;52.248;20.952;2022-07-29T06:03:52;18.60;99.90
17284;DHT22;8760;52.248;20.952;2022-07-29T06:06:19;18.70;1.00
17284;DHT22;8760;52.248;20.952;2022-07-29T06:08:47;18.80;1.00
17284;DHT22;8760;52.248;20.952;2022-07-29T06:11:13;19.00;99.90
17284;DHT22;8760;52.248;20.952;2022-07-29T06:13:42;19.20;1.00
17284;DHT22;8760;52.248;20.952;2022-07-29T06:16:08;19.30;1.00
17284;DHT22;8760;52.248;20.952;2022-07-29T06:18:35;19.40;99.90
17284;DHT22;8760;52.248;20.952;2022-07-29T06:21:07;19.60;99.90
17284;DHT22;8760;52.248;20.952;2022-07-29T06:23:35;19.80;1.00
17284;DHT22;8760;52.248;20.952;2022-07-29T06:26:02;19.70;1.00
17284;DHT22;8760;52.248;20.952;2022-07-29T06:28:28;19.90;99.90
17284;DHT22;8760;52.248;20.952;2022-07-29T06:30:56;20.00;99.90
17284;DHT22;8760;52.248;20.952;2022-07-29T06:33:23;20.30;99.90
17284;DHT22;8760;52.248;20.952;2022-07-29T06:35:50;20.40;83.30
17284;DHT22;8760;52.248;20.952;2022-07-29T06:38:17;20.60;1.00
17284;DHT22;8760;52.248;20.952;2022-07-29T06:40:44;20.80;1.00
17284;DHT22;8760;52.248;20.952;2022-07-29T06:43:27;21.00;99.90
17284;DHT22;8760;52.248;20.952;2022-07-29T06:45:58;21.30;1.00
17284;DHT22;8760;52.248;20.952;2022-07-29T06:48:27;21.50;99.90
17284;DHT22;8760;52.248;20.952;2022-07-29T06:50:54;21.80;99.90
17284;DHT22;8760;52.248;20.952;2022-07-29T06:53:21;22.10;99.90
17284;DHT22;8760;52.248;20.952;2022-07-29T06:55:48;22.10;1.00
17284;DHT22;8760;52.248;20.952;2022-07-29T06:58:15;22.30;99.90
17284;DHT22;8760;52.248;20.952;2022-07-29T07:00:43;22.30;99.90
17284;DHT22;8760;52.248;20.952;2022-07-29T07:03:11;22.50;99.90
17284;DHT22;8760;52.248;20.952;2022-07-29T07:05:38;22.90;99.90
17284;DHT22;8760;52.248;20.952;2022-07-29T07:08:05;22.70;99.90
17284;DHT22;8760;52.248;20.952;2022-07-29T07:10:32;23.20;99.90
17284;DHT22;8760;52.248;20.952;2022-07-29T07:12:59;23.40;99.90
17284;DHT22;8760;52.248;20.952;2022-07-29T07:15:27;23.70;99.90
17284;DHT22;8760;52.248;20.952;2022-07-29T07:17:54;24.10;99.70
17284;DHT22;8760;52.248;20.952;2022-07-29T07:20:22;24.30;1.00
17284;DHT22;8760;52.248;20.952;2022-07-29T07:22:48;24.50;1.00
17284;DHT22;8760;52.248;20.952;2022-07-29T07:25:15;24.90;1.00
17284;DHT22;8760;52.248;20.952;2022-07-29T07:27:43;25.10;1.00
17284;DHT22;8760;52.248;20.952;2022-07-29T07:30:10;25.20;1.00
17284;DHT22;8760;52.248;20.952;2022-07-29T07:32:37;25.00;1.00
17284;DHT22;8760;52.248;20.952;2022-07-29T07:35:05;25.40;1.00
17284;DHT22;8760;52.248;20.952;2022-07-29T07:37:33;25.70;1.00
17284;DHT22;8760;52.248;20.952;2022-07-29T07:40:00;25.90;99.90
17284;DHT22;8760;52.248;20.952;2022-07-29T07:42:27;26.10;1.00
17284;DHT22;8760;52.248;20.952;2022-07-29T07:44:54;26.10;1.00
17284;DHT22;8760;52.248;20.952;2022-07-29T07:47:21;26.20;99.90
17284;DHT22;8760;52.248;20.952;2022-07-29T07:49:49;26.70;99.90
17284;DHT22;8760;52.248;20.952;2022-07-29T07:52:17;26.70;99.90
17284;DHT22;8760;52.248;20.952;2022-07-29T07:54:45;26.70;99.90
17284;DHT22;8760;52.248;20.952;2022-07-29T07:57:12;26.60;99.90
17284;DHT22;8760;52.248;20.952;2022-07-29T07:59:40;26.90;99.90
17284;DHT22;8760;52.248;20.952;2022-07-29T08:02:07;27.00;99.90
17284;DHT22;8760;52.248;20.952;2022-07-29T08:04:35;27.30;99.90
17284;DHT22;8760;52.248;20.952;2022-07-29T08:07:02;27.50;99.90
17284;DHT22;8760;52.248;20.952;2022-07-29T08:09:29;27.60;99.90
17284;DHT22;8760;52.248;20.952;2022-07-29T08:11:57;27.60;99.90
17284;DHT22;8760;52.248;20.952;2022-07-29T08:14:24;27.70;99.90
17284;DHT22;8760;52.248;20.952;2022-07-29T08:16:51;28.20;99.90
17284;DHT22;8760;52.248;20.952;2022-07-29T08:19:19;28.20;99.90
17284;DHT22;8760;52.248;20.952;2022-07-29T08:21:46;28.30;99.90
17284;DHT22;8760;52.248;20.952;2022-07-29T08:24:13;28.50;99.90
17284;DHT22;8760;52.248;20.952;2022-07-29T08:26:59;28.80;99.90
17284;DHT22;8760;52.248;20.952;2022-07-29T08:29:25;28.80;99.90
17284;DHT22;8760;52.248;20.952;2022-07-29T08:31:52;28.70;99.90
17284;DHT22;8760;52.248;20.952;2022-07-29T08:34:19;28.80;99.90
17284;DHT22;8760;52.248;20.952;2022-07-29T08:36:46;28.40;99.90
17284;DHT22;8760;52.248;20.952;2022-07-29T08:39:12;28.30;99.90
17284;DHT22;8760;52.248;20.952;2022-07-29T08:41:39;28.50;99.90
17284;DHT22;8760;52.248;20.952;2022-07-29T08:44:07;28.90;99.90
17284;DHT22;8760;52.248;20.952;2022-07-29T08:46:37;29.40;99.90
17284;DHT22;8760;52.248;20.952;2022-07-29T08:49:04;29.90;99.90
17284;DHT22;8760;52.248;20.952;2022-07-29T08:51:32;30.00;99.90
17284;DHT22;8760;52.248;20.952;2022-07-29T08:54:00;30.30;99.90
17284;DHT22;8760;52.248;20.952;2022-07-29T08:56:28;30.30;99.90
17284;DHT22;8760;52.248;20.952;2022-07-29T08:58:58;30.80;99.90
17284;DHT22;8760;52.248;20.952;2022-07-29T09:01:28;30.80;99.90
17284;DHT22;8760;52.248;20.952;2022-07-29T09:03:57;31.00;99.90
17284;DHT22;8760;52.248;20.952;2022-07-29T09:06:31;31.40;99.90
17284;DHT22;8760;52.248;20.952;2022-07-29T09:08:59;32.00;93.90
17284;DHT22;8760;52.248;20.952;2022-07-29T09:11:26;32.00;88.30
17284;DHT22;8760;52.248;20.952;2022-07-29T09:13:53;31.10;78.30
17284;DHT22;8760;52.248;20.952;2022-07-29T09:16:20;30.10;63.70
17284;DHT22;8760;52.248;20.952;2022-07-29T09:18:48;29.40;72.80
17284;DHT22;8760;52.248;20.952;2022-07-29T09:21:17;29.20;84.50
17284;DHT22;8760;52.248;20.952;2022-07-29T09:24:04;28.90;84.70
17284;DHT22;8760;52.248;20.952;2022-07-29T09:26:33;29.40;91.80
17284;DHT22;8760;52.248;20.952;2022-07-29T09:29:01;30.00;82.60
17284;DHT22;8760;52.248;20.952;2022-07-29T09:31:35;30.30;81.40
17284;DHT22;8760;52.248;20.952;2022-07-29T09:34:05;31.30;48.70
17284;DHT22;8760;52.248;20.952;2022-07-29T09:36:38;31.30;65.80
17284;DHT22;8760;52.248;20.952;2022-07-29T09:39:05;31.90;57.00
17284;DHT22;8760;52.248;20.952;2022-07-29T09:41:47;32.00;47.00
17284;DHT22;8760;52.248;20.952;2022-07-29T09:44:14;31.60;26.50
17284;DHT22;8760;52.248;20.952;2022-07-29T09:46:58;31.70;23.20
17284;DHT22;8760;52.248;20.952;2022-07-29T09:49:32;31.40;18.90
17284;DHT22;8760;52.248;20.952;2022-07-29T09:52:07;31.30;24.00
17284;DHT22;8760;52.248;20.952;2022-07-29T09:54:36;31.30;19.60
17284;DHT22;8760;52.248;20.952;2022-07-29T09:57:07;30.20;1.00
17284;DHT22;8760;52.248;20.952;2022-07-29T09:59:35;30.20;12.90
17284;DHT22;8760;52.248;20.952;2022-07-29T10:02:11;29.40;16.40
17284;DHT22;8760;52.248;20.952;2022-07-29T10:04:41;29.00;18.00
17284;DHT22;8760;52.248;20.952;2022-07-29T10:07:08;28.80;27.30
17284;DHT22;8760;52.248;20.952;2022-07-29T10:09:35;28.80;31.90
17284;DHT22;8760;52.248;20.952;2022-07-29T10:12:04;28.40;39.20
17284;DHT22;8760;52.248;20.952;2022-07-29T10:14:31;28.20;23.30
17284;DHT22;8760;52.248;20.952;2022-07-29T10:16:59;28.20;36.00
17284;DHT22;8760;52.248;20.952;2022-07-29T10:19:28;28.00;41.20
17284;DHT22;8760;52.248;20.952;2022-07-29T10:21:57;27.70;30.70
17284;DHT22;8760;52.248;20.952;2022-07-29T10:24:25;27.50;32.70
17284;DHT22;8760;52.248;20.952;2022-07-29T10:26:54;27.30;47.00
17284;DHT22;8760;52.248;20.952;2022-07-29T10:29:21;27.20;60.90
17284;DHT22;8760;52.248;20.952;2022-07-29T10:32:08;27.50;67.50
17284;DHT22;8760;52.248;20.952;2022-07-29T10:34:51;28.00;54.90
17284;DHT22;8760;52.248;20.952;2022-07-29T10:37:31;28.30;43.80
17284;DHT22;8760;52.248;20.952;2022-07-29T10:40:09;28.20;44.40
17284;DHT22;8760;52.248;20.952;2022-07-29T10:42:52;28.20;59.00
17284;DHT22;8760;52.248;20.952;2022-07-29T10:45:20;27.90;58.70
17284;DHT22;8760;52.248;20.952;2022-07-29T10:47:48;28.10;54.80
17284;DHT22;8760;52.248;20.952;2022-07-29T10:50:14;28.40;53.30
17284;DHT22;8760;52.248;20.952;2022-07-29T10:52:54;28.90;51.20
17284;DHT22;8760;52.248;20.952;2022-07-29T10:55:32;29.20;56.90
17284;DHT22;8760;52.248;20.952;2022-07-29T10:58:16;29.80;47.10
17284;DHT22;8760;52.248;20.952;2022-07-29T11:00:43;30.10;32.90
17284;DHT22;8760;52.248;20.952;2022-07-29T11:03:42;30.10;12.80
17284;DHT22;8760;52.248;20.952;2022-07-29T11:06:10;30.00;22.50
17284;DHT22;8760;52.248;20.952;2022-07-29T11:08:39;29.60;17.40
17284;DHT22;8760;52.248;20.952;2022-07-29T11:11:36;29.30;17.70
17284;DHT22;8760;52.248;20.952;2022-07-29T11:14:09;29.20;21.00
17284;DHT22;8760;52.248;20.952;2022-07-29T11:17:01;29.00;17.90
17284;DHT22;8760;52.248;20.952;2022-07-29T11:19:29;28.60;24.60
17284;DHT22;8760;52.248;20.952;2022-07-29T11:21:56;28.20;22.70
17284;DHT22;8760;52.248;20.952;2022-07-29T11:24:25;27.80;26.90
17284;DHT22;8760;52.248;20.952;2022-07-29T11:27:20;27.40;36.50
17284;DHT22;8760;52.248;20.952;2022-07-29T11:29:50;27.10;32.00
17284;DHT22;8760;52.248;20.952;2022-07-29T11:32:17;26.90;35.00
17284;DHT22;8760;52.248;20.952;2022-07-29T11:34:46;26.80;32.90
17284;DHT22;8760;52.248;20.952;2022-07-29T11:37:18;26.70;40.10
17284;DHT22;8760;52.248;20.952;2022-07-29T11:42:40;26.60;44.30
17284;DHT22;8760;52.248;20.952;2022-07-29T11:45:08;26.60;52.30
17284;DHT22;8760;52.248;20.952;2022-07-29T11:47:37;26.50;52.60
17284;DHT22;8760;52.248;20.952;2022-07-29T11:50:05;26.30;47.80
17284;DHT22;8760;52.248;20.952;2022-07-29T11:52:33;26.30;55.00
17284;DHT22;8760;52.248;20.952;2022-07-29T11:55:05;26.30;68.10
17284;DHT22;8760;52.248;20.952;2022-07-29T11:57:34;26.30;61.80
17284;DHT22;8760;52.248;20.952;2022-07-29T12:00:02;26.30;61.70
17284;DHT22;8760;52.248;20.952;2022-07-29T12:02:39;26.20;78.90
17284;DHT22;8760;52.248;20.952;2022-07-29T12:05:08;26.30;65.60
17284;DHT22;8760;52.248;20.952;2022-07-29T12:07:36;26.40;62.80
17284;DHT22;8760;52.248;20.952;2022-07-29T12:10:06;26.60;73.50
17284;DHT22;8760;52.248;20.952;2022-07-29T12:12:33;26.70;71.20
17284;DHT22;8760;52.248;20.952;2022-07-29T12:15:14;26.70;68.60
17284;DHT22;8760;52.248;20.952;2022-07-29T12:17:42;26.70;70.60
17284;DHT22;8760;52.248;20.952;2022-07-29T12:20:10;26.60;79.80
17284;DHT22;8760;52.248;20.952;2022-07-29T12:22:40;26.60;83.90
17284;DHT22;8760;52.248;20.952;2022-07-29T12:25:12;26.60;68.00
17284;DHT22;8760;52.248;20.952;2022-07-29T12:27:42;26.60;53.20
17284;DHT22;8760;52.248;20.952;2022-07-29T12:30:11;26.60;58.50
17284;DHT22;8760;52.248;20.952;2022-07-29T12:32:40;26.60;60.60
17284;DHT22;8760;52.248;20.952;2022-07-29T12:35:09;26.60;51.20
17284;DHT22;8760;52.248;20.952;2022-07-29T12:37:38;26.50;48.30
17284;DHT22;8760;52.248;20.952;2022-07-29T12:40:07;26.40;57.00
17284;DHT22;8760;52.248;20.952;2022-07-29T12:42:36;26.30;64.40
17284;DHT22;8760;52.248;20.952;2022-07-29T12:45:04;26.10;56.70
17284;DHT22;8760;52.248;20.952;2022-07-29T12:47:31;26.00;66.00
17284;DHT22;8760;52.248;20.952;2022-07-29T12:50:09;25.90;80.70
17284;DHT22;8760;52.248;20.952;2022-07-29T12:52:36;25.80;75.60
17284;DHT22;8760;52.248;20.952;2022-07-29T12:55:04;25.90;86.80
17284;DHT22;8760;52.248;20.952;2022-07-29T12:57:31;25.90;87.60
17284;DHT22;8760;52.248;20.952;2022-07-29T13:00:08;26.00;71.30
17284;DHT22;8760;52.248;20.952;2022-07-29T13:02:37;26.10;72.30
17284;DHT22;8760;52.248;20.952;2022-07-29T13:05:05;26.20;78.50
17284;DHT22;8760;52.248;20.952;2022-07-29T13:07:34;26.10;62.70
17284;DHT22;8760;52.248;20.952;2022-07-29T13:10:13;26.00;73.30
17284;DHT22;8760;52.248;20.952;2022-07-29T13:13:06;26.00;70.30
17284;DHT22;8760;52.248;20.952;2022-07-29T13:15:37;26.00;73.10
17284;DHT22;8760;52.248;20.952;2022-07-29T13:18:04;26.00;83.50
17284;DHT22;8760;52.248;20.952;2022-07-29T13:20:32;25.80;80.80
17284;DHT22;8760;52.248;20.952;2022-07-29T13:22:59;25.80;93.80
17284;DHT22;8760;52.248;20.952;2022-07-29T13:25:28;25.70;92.50
17284;DHT22;8760;52.248;20.952;2022-07-29T13:27:55;25.60;90.40
17284;DHT22;8760;52.248;20.952;2022-07-29T13:30:22;25.70;93.90
17284;DHT22;8760;52.248;20.952;2022-07-29T13:32:51;25.80;98.90
17284;DHT22;8760;52.248;20.952;2022-07-29T13:35:19;26.00;98.40
17284;DHT22;8760;52.248;20.952;2022-07-29T13:37:46;26.10;97.00
17284;DHT22;8760;52.248;20.952;2022-07-29T13:40:13;26.30;99.90
17284;DHT22;8760;52.248;20.952;2022-07-29T13:42:40;26.40;88.60
17284;DHT22;8760;52.248;20.952;2022-07-29T13:45:08;26.30;85.90
17284;DHT22;8760;52.248;20.952;2022-07-29T13:47:36;26.10;80.90
17284;DHT22;8760;52.248;20.952;2022-07-29T13:50:06;25.90;79.00
17284;DHT22;8760;52.248;20.952;2022-07-29T13:52:33;25.80;78.40
17284;DHT22;8760;52.248;20.952;2022-07-29T13:55:01;25.70;77.90
17284;DHT22;8760;52.248;20.952;2022-07-29T13:57:29;25.70;74.70
17284;DHT22;8760;52.248;20.952;2022-07-29T13:59:56;25.70;65.90
17284;DHT22;8760;52.248;20.952;2022-07-29T14:02:22;25.70;66.40
17284;DHT22;8760;52.248;20.952;2022-07-29T14:04:49;25.80;70.80
17284;DHT22;8760;52.248;20.952;2022-07-29T14:07:17;25.80;88.30
17284;DHT22;8760;52.248;20.952;2022-07-29T14:09:44;25.80;82.10
17284;DHT22;8760;52.248;20.952;2022-07-29T14:12:11;25.80;81.50
17284;DHT22;8760;52.248;20.952;2022-07-29T14:14:38;25.80;78.50
17284;DHT22;8760;52.248;20.952;2022-07-29T14:17:05;25.70;72.60
17284;DHT22;8760;52.248;20.952;2022-07-29T14:19:32;25.70;81.10
17284;DHT22;8760;52.248;20.952;2022-07-29T14:22:03;25.60;82.50
17284;DHT22;8760;52.248;20.952;2022-07-29T14:24:31;25.50;70.00
17284;DHT22;8760;52.248;20.952;2022-07-29T14:26:59;25.40;79.40
17284;DHT22;8760;52.248;20.952;2022-07-29T14:29:25;25.30;73.10
17284;DHT22;8760;52.248;20.952;2022-07-29T14:31:52;25.30;82.10
17284;DHT22;8760;52.248;20.952;2022-07-29T14:34:19;25.30;86.20
17284;DHT22;8760;52.248;20.952;2022-07-29T14:36:46;25.20;79.90
17284;DHT22;8760;52.248;20.952;2022-07-29T14:39:14;25.20;86.50
17284;DHT22;8760;52.248;20.952;2022-07-29T14:41:43;25.30;81.40
17284;DHT22;8760;52.248;20.952;2022-07-29T14:44:10;25.30;86.90
17284;DHT22;8760;52.248;20.952;2022-07-29T14:46:36;25.30;83.90
17284;DHT22;8760;52.248;20.952;2022-07-29T14:49:03;25.30;74.40
17284;DHT22;8760;52.248;20.952;2022-07-29T14:51:31;25.30;91.50
17284;DHT22;8760;52.248;20.952;2022-07-29T14:53:57;25.50;82.00
17284;DHT22;8760;52.248;20.952;2022-07-29T14:56:24;25.50;71.20
17284;DHT22;8760;52.248;20.952;2022-07-29T14:58:53;25.60;88.60
17284;DHT22;8760;52.248;20.952;2022-07-29T15:01:20;25.70;92.00
17284;DHT22;8760;52.248;20.952;2022-07-29T15:03:47;25.70;75.70
17284;DHT22;8760;52.248;20.952;2022-07-29T15:06:13;25.70;78.80
17284;DHT22;8760;52.248;20.952;2022-07-29T15:08:40;25.80;92.50
17284;DHT22;8760;52.248;20.952;2022-07-29T15:11:07;25.80;92.00
17284;DHT22;8760;52.248;20.952;2022-07-29T15:13:34;26.00;92.30
17284;DHT22;8760;52.248;20.952;2022-07-29T15:16:02;26.00;77.70
17284;DHT22;8760;52.248;20.952;2022-07-29T15:18:31;25.90;79.80
17284;DHT22;8760;52.248;20.952;2022-07-29T15:20:57;25.90;74.50
17284;DHT22;8760;52.248;20.952;2022-07-29T15:23:25;25.80;64.70
17284;DHT22;8760;52.248;20.952;2022-07-29T15:25:52;25.80;63.00
17284;DHT22;8760;52.248;20.952;2022-07-29T15:28:19;25.80;67.60
17284;DHT22;8760;52.248;20.952;2022-07-29T15:30:46;25.70;67.80
17284;DHT22;8760;52.248;20.952;2022-07-29T15:33:14;25.70;68.00
17284;DHT22;8760;52.248;20.952;2022-07-29T15:35:41;25.60;71.50
17284;DHT22;8760;52.248;20.952;2022-07-29T15:38:08;25.50;69.80
17284;DHT22;8760;52.248;20.952;2022-07-29T15:40:37;25.30;72.40
17284;DHT22;8760;52.248;20.952;2022-07-29T15:43:05;25.30;69.60
17284;DHT22;8760;52.248;20.952;2022-07-29T15:45:35;25.20;65.40
17284;DHT22;8760;52.248;20.952;2022-07-29T15:48:04;25.10;62.10